Time;durP1;ratioP1;P1;durP2;ratioP2;P2;SDS_P1;SDS_P2;PMS_P1;PMS_P2;Temp;Humidity;BMP_temperature;BMP_pressure;BME280_temperature;BME280_humidity;BME280_pressure;Samples;Min_cycle;Max_cycle;Signal;HPM_P1;HPM_P2
2024/03/17 00:00:18;;;;;;;32.67;14.32;;;8.50;99.90;;;;;;4977068;28;20038;-90
2024/03/17 00:02:44;;;;;;;34.80;15.73;;;8.50;99.90;;;;;;4977600;28;20053;-90
2024/03/17 00:05:10;;;;;;;30.10;15.57;;;8.50;99.90;;;;;;4977243;28;20030;-89
2024/03/17 00:07:35;;;;;;;33.67;17.20;;;8.60;99.90;;;;;;4977092;28;20037;-89
2024/03/17 00:10:01;;;;;;;32.28;15.57;;;8.60;99.90;;;;;;4977087;28;20026;-89
2024/03/17 00:12:27;;;;;;;33.20;15.27;;;8.70;99.90;;;;;;4976944;28;20528;-90
2024/03/17 00:14:53;;;;;;;30.33;16.05;;;8.70;99.90;;;;;;4977406;28;20118;-89
2024/03/17 00:17:20;;;;;;;34.75;14.70;;;8.70;99.90;;;;;;4976691;28;20582;-91
2024/03/17 00:19:49;;;;;;;28.98;14.98;;;8.80;99.90;;;;;;4960797;28;20042;-89
2024/03/17 00:22:15;;;;;;;32.03;14.45;;;8.70;99.90;;;;;;4976635;28;20026;-89
2024/03/17 00:24:42;;;;;;;35.45;16.45;;;8.70;99.90;;;;;;4977179;28;20026;-90
2024/03/17 00:27:09;;;;;;;37.45;15.98;;;8.80;99.90;;;;;;4976990;28;20490;-90
2024/03/17 00:29:34;;;;;;;39.13;16.48;;;8.70;99.90;;;;;;4977144;28;20027;-89
2024/03/17 00:32:00;;;;;;;38.38;17.05;;;8.80;99.90;;;;;;4976686;28;20088;-89
2024/03/17 00:34:26;;;;;;;48.95;19.52;;;8.80;99.90;;;;;;4976058;28;20038;-88
2024/03/17 00:36:51;;;;;;;50.70;20.00;;;8.80;99.90;;;;;;4975900;28;20037;-91
2024/03/17 00:39:17;;;;;;;42.22;17.70;;;8.80;99.90;;;;;;4976129;28;20026;-92
2024/03/17 00:41:46;;;;;;;53.47;21.00;;;8.80;99.90;;;;;;4976048;28;20023;-91
2024/03/17 00:44:12;;;;;;;43.38;18.05;;;8.80;99.90;;;;;;4976699;28;20026;-90
2024/03/17 00:46:39;;;;;;;53.15;18.50;;;8.80;99.90;;;;;;4976622;28;20466;-91
2024/03/17 00:49:05;;;;;;;50.00;20.77;;;8.80;99.90;;;;;;4976170;28;20038;-90
2024/03/17 00:51:31;;;;;;;50.35;18.88;;;8.80;99.90;;;;;;4976310;28;20109;-90
2024/03/17 00:53:58;;;;;;;52.40;18.98;;;8.80;99.90;;;;;;4976616;28;20141;-90
2024/03/17 00:56:23;;;;;;;50.03;19.80;;;8.80;99.90;;;;;;4976477;28;20038;-91
2024/03/17 00:58:51;;;;;;;47.20;19.25;;;8.80;99.90;;;;;;4975840;28;20026;-91
2024/03/17 01:01:17;;;;;;;46.63;19.73;;;8.90;99.90;;;;;;4976560;28;20026;-91
2024/03/17 01:03:42;;;;;;;49.03;18.73;;;8.90;99.90;;;;;;4976553;28;20042;-91
2024/03/17 01:06:08;;;;;;;40.10;17.45;;;8.90;99.90;;;;;;4976976;28;20036;-91
2024/03/17 01:08:34;;;;;;;46.33;20.02;;;8.90;99.90;;;;;;4980240;28;20026;-91
2024/03/17 01:11:01;;;;;;;42.15;17.38;;;8.90;99.90;;;;;;4980287;28;20097;-90
2024/03/17 01:13:26;;;;;;;58.30;19.63;;;8.90;99.90;;;;;;4979876;28;20038;-92
2024/03/17 01:15:52;;;;;;;46.80;18.77;;;9.00;99.90;;;;;;4981007;28;20030;-91
2024/03/17 01:18:18;;;;;;;57.78;19.88;;;8.90;99.90;;;;;;4981001;28;20633;-90
2024/03/17 01:20:44;;;;;;;51.25;21.50;;;9.00;99.90;;;;;;4980095;28;20380;-90
2024/03/17 01:23:10;;;;;;;43.40;18.80;;;9.00;99.90;;;;;;4979967;28;20033;-90
2024/03/17 01:25:37;;;;;;;56.63;20.80;;;9.00;99.90;;;;;;4979976;28;20018;-90
2024/03/17 01:28:04;;;;;;;49.53;19.13;;;9.00;99.90;;;;;;4979785;28;20117;-90
2024/03/17 01:30:30;;;;;;;48.25;18.65;;;9.00;99.90;;;;;;4979881;28;20480;-91
2024/03/17 01:32:55;;;;;;;50.78;18.92;;;9.00;99.90;;;;;;4980360;28;20034;-91
2024/03/17 01:35:22;;;;;;;45.00;18.88;;;9.00;99.90;;;;;;4979909;28;20026;-91
2024/03/17 01:37:48;;;;;;;57.90;20.27;;;9.10;99.90;;;;;;4980032;28;20031;-90
2024/03/17 01:40:14;;;;;;;46.17;20.45;;;9.10;99.90;;;;;;4979703;28;20029;-90
2024/03/17 01:42:41;;;;;;;48.83;20.88;;;9.10;99.90;;;;;;4979880;28;20022;-89
2024/03/17 01:45:32;;;;;;;45.80;20.23;;;9.10;99.90;;;;;;4979698;28;20467;-90
2024/03/17 01:48:01;;;;;;;53.95;21.15;;;9.10;99.90;;;;;;4979640;28;20045;-90
2024/03/17 01:50:37;;;;;;;51.25;18.50;;;9.10;99.90;;;;;;4979611;28;20026;-89
2024/03/17 01:53:05;;;;;;;59.83;21.83;;;9.10;99.90;;;;;;4979139;28;20057;-91
2024/03/17 01:55:36;;;;;;;59.88;21.08;;;9.20;99.90;;;;;;4979252;28;20114;-90
2024/03/17 01:58:03;;;;;;;48.50;20.00;;;9.20;99.90;;;;;;4979294;28;20026;-90
2024/03/17 02:00:31;;;;;;;58.97;20.40;;;9.20;99.90;;;;;;4979025;28;20121;-90
2024/03/17 02:02:57;;;;;;;60.17;21.60;;;9.20;99.90;;;;;;4979270;28;20027;-90
2024/03/17 02:05:23;;;;;;;51.55;19.67;;;9.20;99.90;;;;;;4978976;28;20030;-92
2024/03/17 02:07:48;;;;;;;55.85;20.33;;;9.20;99.90;;;;;;4979396;28;20040;-90
2024/03/17 02:10:14;;;;;;;57.05;19.60;;;9.20;99.90;;;;;;4979376;28;20045;-90
2024/03/17 02:12:40;;;;;;;58.80;19.98;;;9.20;99.90;;;;;;4978925;28;20039;-90
2024/03/17 02:15:07;;;;;;;54.30;19.60;;;9.20;99.90;;;;;;4979248;28;20129;-90
2024/03/17 02:17:33;;;;;;;47.88;18.20;;;9.30;99.90;;;;;;4978357;28;20026;-90
2024/03/17 02:19:59;;;;;;;58.05;19.75;;;9.30;99.90;;;;;;4978632;28;20502;-90
2024/03/17 02:22:27;;;;;;;48.65;19.15;;;9.30;99.90;;;;;;4979327;28;20030;-92
2024/03/17 02:24:53;;;;;;;64.38;19.45;;;9.30;99.90;;;;;;4978598;28;20038;-89
2024/03/17 02:27:19;;;;;;;55.10;20.23;;;9.30;99.90;;;;;;4979355;28;20411;-88
2024/03/17 02:29:45;;;;;;;47.63;19.17;;;9.40;99.90;;;;;;4996448;28;20448;-89
2024/03/17 02:32:11;;;;;;;51.42;16.55;;;9.40;99.90;;;;;;4978766;28;20062;-91
2024/03/17 02:34:38;;;;;;;46.42;16.38;;;9.40;99.90;;;;;;4978935;28;20031;-90
2024/03/17 02:37:06;;;;;;;50.28;16.42;;;9.40;99.90;;;;;;4979298;28;20050;-91
2024/03/17 02:39:34;;;;;;;51.75;17.17;;;9.40;99.90;;;;;;4978858;28;20034;-89
2024/03/17 02:42:05;;;;;;;51.25;16.48;;;9.40;99.90;;;;;;4979044;28;20081;-89
2024/03/17 02:44:31;;;;;;;;;;;9.40;99.90;;;;;;4980695;28;20038;-89
2024/03/17 02:46:58;;;;;;;53.20;17.95;;;9.50;99.90;;;;;;4979962;28;19906;-91
2024/03/17 02:49:26;;;;;;;46.00;15.93;;;9.50;99.90;;;;;;4979178;28;20082;-90
2024/03/17 02:51:56;;;;;;;38.10;16.42;;;9.50;99.90;;;;;;4963669;28;20521;-91
2024/03/17 02:54:22;;;;;;;48.60;17.70;;;9.50;99.90;;;;;;4979556;28;20036;-89
2024/03/17 02:56:49;;;;;;;48.50;17.20;;;9.50;99.90;;;;;;4979228;28;20571;-91
2024/03/17 02:59:15;;;;;;;56.85;19.05;;;9.50;99.90;;;;;;4978538;28;20526;-89
2024/03/17 03:01:43;;;;;;;43.47;15.98;;;9.60;99.90;;;;;;4979065;28;20030;-92
2024/03/17 03:04:08;;;;;;;59.28;16.70;;;9.60;99.90;;;;;;4980159;28;20030;-90
2024/03/17 03:06:35;;;;;;;42.35;15.98;;;9.60;99.90;;;;;;4978793;28;20543;-90
2024/03/17 03:09:00;;;;;;;56.03;16.77;;;9.60;99.90;;;;;;4980429;28;20038;-90
2024/03/17 03:11:26;;;;;;;40.40;15.02;;;9.60;99.90;;;;;;4981783;28;20060;-90
2024/03/17 03:13:52;;;;;;;43.85;12.65;;;9.60;99.90;;;;;;4978830;28;20038;-91
2024/03/17 03:16:20;;;;;;;27.88;10.73;;;9.60;99.90;;;;;;4977753;28;20029;-91
2024/03/17 03:18:46;;;;;;;23.17;9.63;;;9.60;99.90;;;;;;4977293;28;20030;-91
2024/03/17 03:21:12;;;;;;;34.90;9.63;;;9.60;99.90;;;;;;4978419;28;20033;-90
2024/03/17 03:23:38;;;;;;;32.30;10.57;;;9.70;99.90;;;;;;4977522;28;20038;-91
2024/03/17 03:26:08;;;;;;;23.98;10.13;;;9.70;99.90;;;;;;4977808;28;20026;-89
2024/03/17 03:28:35;;;;;;;25.02;11.60;;;9.70;99.90;;;;;;4978314;28;20035;-89
2024/03/17 03:31:02;;;;;;;29.20;10.27;;;9.70;99.90;;;;;;4977201;28;20027;-90
2024/03/17 03:33:28;;;;;;;25.58;10.40;;;9.70;99.90;;;;;;4976825;28;20038;-90
2024/03/17 03:35:55;;;;;;;29.40;10.63;;;9.70;99.90;;;;;;4977317;28;20164;-89
2024/03/17 03:38:21;;;;;;;33.47;9.77;;;9.70;99.90;;;;;;4977536;28;20026;-91
2024/03/17 03:40:52;;;;;;;27.27;10.93;;;9.70;99.90;;;;;;4978050;28;20022;-89
2024/03/17 03:43:18;;;;;;;24.27;10.43;;;9.70;99.90;;;;;;4978012;28;20567;-90
2024/03/17 03:45:45;;;;;;;37.80;11.52;;;9.70;99.90;;;;;;4978273;28;20058;-89
2024/03/17 03:48:11;;;;;;;33.50;10.93;;;9.80;99.90;;;;;;4978368;28;20093;-90
2024/03/17 03:50:38;;;;;;;25.52;9.98;;;9.80;99.90;;;;;;4978945;28;20023;-89
2024/03/17 03:53:05;;;;;;;20.35;9.38;;;9.80;99.90;;;;;;4979108;28;20050;-89
2024/03/17 03:55:31;;;;;;;23.13;8.23;;;9.80;99.90;;;;;;4978816;28;20061;-90
2024/03/17 03:57:57;;;;;;;24.73;9.07;;;9.80;99.90;;;;;;4978360;28;20034;-90
2024/03/17 04:00:23;;;;;;;17.25;6.90;;;9.80;99.90;;;;;;4978430;28;20053;-92
2024/03/17 04:02:51;;;;;;;18.63;7.18;;;9.80;99.90;;;;;;4978061;28;20054;-90
2024/03/17 04:05:18;;;;;;;14.30;6.68;;;9.80;99.90;;;;;;4980391;28;20037;-90
2024/03/17 04:07:46;;;;;;;15.50;6.82;;;9.80;99.90;;;;;;4993651;28;20026;-88
2024/03/17 04:10:15;;;;;;;13.73;5.35;;;9.80;99.90;;;;;;4994156;28;20054;-91
2024/03/17 04:12:42;;;;;;;15.02;5.20;;;9.80;99.90;;;;;;4990608;28;20034;-90
2024/03/17 04:15:10;;;;;;;13.57;5.90;;;9.90;99.90;;;;;;4989015;28;20034;-91
2024/03/17 04:17:37;;;;;;;13.95;4.95;;;9.90;99.90;;;;;;4988412;28;20118;-90
2024/03/17 04:20:04;;;;;;;20.30;5.40;;;9.90;99.90;;;;;;4986837;28;20030;-90
2024/03/17 04:22:30;;;;;;;10.82;4.20;;;9.90;99.90;;;;;;4976683;28;20045;-91
2024/03/17 04:24:57;;;;;;;9.18;4.20;;;9.90;99.90;;;;;;4978540;28;20031;-90
2024/03/17 04:27:32;;;;;;;9.02;3.70;;;9.90;99.90;;;;;;4977826;28;20053;-90
2024/03/17 04:29:59;;;;;;;9.35;3.95;;;9.90;99.90;;;;;;4977232;28;20487;-91
2024/03/17 04:32:28;;;;;;;8.13;3.40;;;9.90;99.90;;;;;;4977345;28;20041;-90
2024/03/17 04:34:54;;;;;;;10.27;4.32;;;9.90;99.90;;;;;;4977167;28;20022;-89
2024/03/17 04:37:19;;;;;;;9.57;3.45;;;9.90;99.90;;;;;;4976106;28;20078;-91
2024/03/17 04:39:47;;;;;;;12.93;3.80;;;9.90;99.90;;;;;;4976352;28;20030;-91
2024/03/17 04:42:14;;;;;;;7.78;3.63;;;9.90;99.90;;;;;;4978503;28;20034;-92
2024/03/17 04:44:41;;;;;;;14.32;4.45;;;9.90;99.90;;;;;;4979993;28;20109;-91
2024/03/17 04:47:07;;;;;;;7.95;3.63;;;9.90;99.90;;;;;;4980878;28;20026;-90
2024/03/17 04:49:39;;;;;;;9.18;3.63;;;9.90;99.90;;;;;;4980549;28;20030;-90
2024/03/17 04:52:07;;;;;;;12.65;3.55;;;9.90;99.90;;;;;;4981262;28;20164;-91
2024/03/17 04:54:32;;;;;;;8.63;3.60;;;9.90;99.90;;;;;;4980815;28;20500;-91
2024/03/17 04:56:58;;;;;;;12.15;3.78;;;10.00;99.90;;;;;;4980808;28;20030;-92
2024/03/17 04:59:24;;;;;;;8.20;3.53;;;9.90;99.90;;;;;;4980150;28;20037;-92
2024/03/17 05:01:51;;;;;;;8.50;3.63;;;9.90;99.90;;;;;;4980368;28;20117;-90
2024/03/17 05:04:17;;;;;;;13.57;3.40;;;9.90;99.90;;;;;;4980474;28;20026;-91
2024/03/17 05:06:46;;;;;;;8.05;3.70;;;9.90;99.90;;;;;;4980622;28;20022;-93
2024/03/17 05:09:21;;;;;;;6.80;2.92;;;9.90;99.90;;;;;;4979992;28;20555;-90
2024/03/17 05:11:49;;;;;;;8.90;3.00;;;10.00;99.90;;;;;;4979365;28;20186;-90
2024/03/17 05:14:15;;;;;;;9.60;3.40;;;10.00;99.90;;;;;;4979726;28;20030;-90
2024/03/17 05:16:41;;;;;;;5.63;3.00;;;10.00;99.90;;;;;;4980071;28;20041;-90
2024/03/17 05:19:09;;;;;;;7.13;2.70;;;10.00;99.90;;;;;;4979308;28;20085;-91
2024/03/17 05:21:34;;;;;;;6.75;2.22;;;10.00;99.90;;;;;;4979690;28;20023;-91
2024/03/17 05:24:03;;;;;;;4.93;2.35;;;10.00;99.90;;;;;;4996682;28;20025;-91
2024/03/17 05:26:31;;;;;;;7.95;2.42;;;10.00;99.90;;;;;;4979810;28;20728;-91
2024/03/17 05:28:57;;;;;;;7.68;2.10;;;10.00;99.90;;;;;;4980041;28;20023;-92
2024/03/17 05:31:22;;;;;;;3.50;1.85;;;10.00;99.90;;;;;;4979915;28;20029;-91
2024/03/17 05:33:48;;;;;;;4.35;1.60;;;10.00;99.90;;;;;;4979722;28;20454;-92
2024/03/17 05:36:14;;;;;;;2.83;1.75;;;10.00;99.90;;;;;;4979082;28;20050;-92
2024/03/17 05:38:40;;;;;;;3.78;1.60;;;10.00;99.90;;;;;;4979021;28;20260;-91
2024/03/17 05:41:07;;;;;;;2.45;1.40;;;10.00;99.90;;;;;;4979381;28;20042;-92
2024/03/17 05:43:38;;;;;;;2.45;1.60;;;10.00;99.90;;;;;;4979693;28;20120;-91
2024/03/17 05:46:08;;;;;;;3.80;1.50;;;10.00;99.90;;;;;;4979601;28;20076;-92
2024/03/17 05:48:38;;;;;;;3.00;1.60;;;10.00;99.90;;;;;;4979407;28;20523;-91
2024/03/17 05:51:09;;;;;;;3.90;1.90;;;9.90;99.90;;;;;;4980534;28;20053;-91
2024/03/17 05:53:35;;;;;;;1.73;1.38;;;9.90;99.90;;;;;;4980961;28;20316;-92
2024/03/17 05:56:02;;;;;;;2.10;1.40;;;9.90;99.90;;;;;;4982267;28;20081;-91
2024/03/17 05:58:27;;;;;;;3.72;1.20;;;9.90;99.90;;;;;;4981255;28;20053;-89
2024/03/17 06:00:53;;;;;;;1.75;1.05;;;9.90;99.90;;;;;;4981098;28;20488;-91
2024/03/17 06:03:19;;;;;;;1.98;1.08;;;9.90;99.90;;;;;;4980156;28;20026;-92
2024/03/17 06:05:46;;;;;;;1.08;0.98;;;9.90;99.90;;;;;;4980432;28;20112;-92
2024/03/17 06:08:12;;;;;;;3.10;1.30;;;10.00;99.90;;;;;;4980012;28;20065;-92
2024/03/17 06:10:42;;;;;;;2.67;1.25;;;10.00;99.90;;;;;;4979251;28;20034;-91
2024/03/17 06:13:11;;;;;;;3.97;1.27;;;10.00;99.90;;;;;;4979669;28;20034;-92
2024/03/17 06:15:37;;;;;;;2.75;1.30;;;10.00;99.90;;;;;;4979471;28;20026;-91
2024/03/17 06:18:03;;;;;;;1.23;1.00;;;10.00;99.90;;;;;;4978525;28;20030;-92
2024/03/17 06:20:29;;;;;;;1.73;0.80;;;10.00;99.90;;;;;;4978438;28;20019;-92
2024/03/17 06:22:56;;;;;;;2.30;0.90;;;9.90;99.90;;;;;;4978484;28;20242;-91
2024/03/17 06:25:25;;;;;;;1.17;1.00;;;9.90;99.90;;;;;;4978117;28;20037;-91
2024/03/17 06:27:51;;;;;;;1.30;1.05;;;10.00;99.90;;;;;;4978581;28;20026;-92
2024/03/17 06:30:17;;;;;;;1.20;1.10;;;9.90;99.90;;;;;;4978479;28;20050;-92
2024/03/17 06:32:47;;;;;;;1.23;1.00;;;9.90;99.90;;;;;;4978074;28;20042;-91
2024/03/17 06:35:25;;;;;;;1.75;1.08;;;9.90;99.90;;;;;;4978199;28;20404;-92
2024/03/17 06:37:53;;;;;;;3.15;0.90;;;9.90;99.90;;;;;;4979398;28;20026;-92
2024/03/17 06:40:19;;;;;;;2.55;0.90;;;9.90;99.90;;;;;;4978053;28;20034;-93
2024/03/17 06:42:45;;;;;;;3.33;0.88;;;9.90;99.90;;;;;;4978378;28;20030;-92
2024/03/17 06:45:10;;;;;;;1.33;0.80;;;9.90;99.90;;;;;;4978737;28;20030;-92
2024/03/17 06:47:37;;;;;;;3.58;0.80;;;9.90;99.90;;;;;;4978508;28;20061;-92
2024/03/17 06:50:04;;;;;;;1.75;0.70;;;9.90;99.90;;;;;;4978802;28;20048;-92
2024/03/17 06:52:30;;;;;;;1.88;0.80;;;9.90;99.90;;;;;;4977991;28;20137;-92
2024/03/17 06:54:57;;;;;;;1.15;0.75;;;9.90;99.90;;;;;;4978308;28;20361;-91
2024/03/17 06:57:24;;;;;;;3.58;0.73;;;9.90;99.90;;;;;;4978216;28;20030;-91
2024/03/17 06:59:50;;;;;;;1.25;0.70;;;9.90;99.90;;;;;;4978249;28;20022;-91
2024/03/17 07:02:18;;;;;;;1.65;0.68;;;9.90;99.90;;;;;;4978362;28;20544;-90
2024/03/17 07:04:44;;;;;;;2.13;0.80;;;9.90;99.90;;;;;;4977283;28;20057;-91
2024/03/17 07:07:11;;;;;;;2.17;0.70;;;9.90;99.90;;;;;;4978628;28;20022;-92
2024/03/17 07:09:38;;;;;;;2.00;0.80;;;9.90;99.90;;;;;;4977864;28;20065;-91
2024/03/17 07:12:04;;;;;;;0.60;0.50;;;9.90;99.90;;;;;;4977861;28;20022;-92
2024/03/17 07:14:31;;;;;;;0.60;0.50;;;9.90;99.90;;;;;;4977650;28;20035;-93
2024/03/17 07:16:57;;;;;;;2.05;0.60;;;9.90;99.90;;;;;;4979093;28;20029;-91
2024/03/17 07:19:23;;;;;;;1.40;0.50;;;9.90;99.90;;;;;;4977035;28;20035;-91
2024/03/17 07:21:48;;;;;;;2.00;0.70;;;9.90;99.90;;;;;;4977175;28;20127;-91
2024/03/17 07:24:14;;;;;;;1.92;0.50;;;9.90;99.90;;;;;;4983375;28;20049;-91
2024/03/17 07:26:40;;;;;;;0.85;0.77;;;9.90;99.90;;;;;;4984487;28;20058;-91
2024/03/17 07:29:06;;;;;;;0.80;0.60;;;9.90;99.90;;;;;;4981281;28;20113;-92
2024/03/17 07:31:32;;;;;;;1.48;0.60;;;9.90;99.90;;;;;;4977458;28;20431;-90
2024/03/17 07:33:57;;;;;;;0.70;0.60;;;9.90;99.90;;;;;;4977014;28;20034;-92
2024/03/17 07:36:23;;;;;;;1.83;0.50;;;9.90;99.90;;;;;;4976767;28;20030;-92
2024/03/17 07:38:49;;;;;;;1.70;0.70;;;9.90;99.90;;;;;;4976849;28;20026;-91
2024/03/17 07:41:14;;;;;;;1.08;0.43;;;9.90;99.90;;;;;;4977514;28;21544;-90
2024/03/17 07:43:40;;;;;;;0.90;0.50;;;9.90;99.90;;;;;;4990134;28;20018;-90
2024/03/17 07:46:09;;;;;;;0.43;0.43;;;9.90;99.90;;;;;;4976741;28;20030;-92
2024/03/17 07:48:36;;;;;;;0.60;0.40;;;9.90;99.90;;;;;;4976779;28;20026;-91
2024/03/17 07:51:04;;;;;;;1.30;0.60;;;9.90;99.90;;;;;;4977147;28;20034;-92
2024/03/17 07:53:33;;;;;;;2.10;0.80;;;9.90;99.90;;;;;;4977239;28;20046;-91
2024/03/17 07:56:06;;;;;;;2.30;0.85;;;9.90;99.90;;;;;;4977387;28;20022;-91
2024/03/17 07:58:33;;;;;;;2.20;0.60;;;9.90;99.90;;;;;;4990606;28;20381;-91
2024/03/17 08:01:05;;;;;;;1.45;0.60;;;9.90;99.90;;;;;;4986109;28;20042;-92
2024/03/17 08:03:33;;;;;;;2.28;0.50;;;9.90;99.90;;;;;;4992328;28;20030;-91
2024/03/17 08:06:00;;;;;;;1.08;0.50;;;9.90;99.90;;;;;;4987384;28;20018;-92
2024/03/17 08:08:27;;;;;;;0.52;0.52;;;9.90;99.90;;;;;;4980734;28;20034;-92
2024/03/17 08:10:53;;;;;;;0.93;0.57;;;9.90;99.90;;;;;;4977797;28;20030;-93
2024/03/17 08:13:21;;;;;;;0.47;0.45;;;9.90;99.90;;;;;;4978043;28;20034;-92
2024/03/17 08:15:55;;;;;;;0.95;0.50;;;9.90;99.90;;;;;;4970050;28;20024;-92
2024/03/17 08:18:21;;;;;;;0.65;0.40;;;9.90;99.90;;;;;;4977150;28;20026;-92
2024/03/17 08:20:47;;;;;;;0.68;0.40;;;10.00;99.90;;;;;;4977589;28;20034;-91
2024/03/17 08:23:13;;;;;;;1.58;0.60;;;10.00;99.90;;;;;;4977569;28;20057;-91
2024/03/17 08:25:39;;;;;;;2.15;1.00;;;10.00;99.90;;;;;;4977405;28;20384;-91
2024/03/17 08:28:07;;;;;;;1.38;0.88;;;10.00;99.90;;;;;;4976736;28;20038;-92
2024/03/17 08:30:33;;;;;;;1.00;0.80;;;10.00;99.90;;;;;;4976710;28;20019;-92
2024/03/17 08:32:59;;;;;;;0.93;0.70;;;10.10;99.90;;;;;;4976130;28;20018;-91
2024/03/17 08:35:26;;;;;;;0.60;0.52;;;10.10;99.90;;;;;;4976726;28;20141;-92
2024/03/17 08:37:54;;;;;;;0.40;0.40;;;10.20;99.90;;;;;;4976037;28;20030;-93
2024/03/17 08:40:20;;;;;;;1.33;0.40;;;10.20;99.90;;;;;;4977388;28;20026;-92
2024/03/17 08:42:45;;;;;;;0.63;0.60;;;10.20;99.90;;;;;;4976814;28;20026;-92
2024/03/17 08:45:12;;;;;;;1.58;1.20;;;10.30;99.90;;;;;;4976824;28;20468;-92
2024/03/17 08:47:38;;;;;;;0.30;0.30;;;10.30;99.90;;;;;;4976332;28;20073;-91
2024/03/17 08:50:04;;;;;;;0.70;0.50;;;10.40;99.90;;;;;;4977337;28;20022;-91
2024/03/17 08:52:35;;;;;;;1.48;0.60;;;10.50;99.90;;;;;;4976042;28;20043;-91
2024/03/17 08:55:09;;;;;;;0.50;0.50;;;10.50;99.90;;;;;;4979290;28;20042;-92
2024/03/17 08:57:35;;;;;;;0.43;0.30;;;10.60;99.90;;;;;;4976208;28;20031;-92
2024/03/17 09:00:01;;;;;;;1.08;0.50;;;10.60;99.90;;;;;;4976575;28;20033;-91
2024/03/17 09:02:26;;;;;;;0.40;0.40;;;10.60;99.90;;;;;;4976498;28;20369;-92
2024/03/17 09:04:52;;;;;;;0.77;0.43;;;10.60;99.90;;;;;;4976183;28;20050;-92
2024/03/17 09:07:18;;;;;;;0.40;0.30;;;10.60;99.90;;;;;;4976233;28;20035;-92
2024/03/17 09:09:46;;;;;;;0.38;0.38;;;10.70;99.90;;;;;;4977136;28;20499;-91
2024/03/17 09:12:12;;;;;;;0.38;0.38;;;10.70;99.90;;;;;;4976215;28;20023;-91
2024/03/17 09:14:37;;;;;;;2.85;0.50;;;10.70;99.90;;;;;;4980015;28;20040;-92
2024/03/17 09:17:03;;;;;;;0.50;0.30;;;10.70;99.90;;;;;;4977489;28;20030;-92
2024/03/17 09:19:29;;;;;;;0.60;0.40;;;10.80;99.90;;;;;;4975874;28;20360;-92
2024/03/17 09:21:55;;;;;;;0.40;0.40;;;10.80;99.90;;;;;;4976060;28;20468;-91
2024/03/17 09:24:21;;;;;;;1.88;0.47;;;10.80;99.90;;;;;;4975861;28;20042;-91
2024/03/17 09:26:47;;;;;;;0.40;0.40;;;10.80;99.90;;;;;;4975966;28;20150;-91
2024/03/17 09:29:15;;;;;;;0.50;0.50;;;10.80;99.90;;;;;;4979821;28;20033;-91
2024/03/17 09:31:41;;;;;;;0.50;0.45;;;10.80;99.90;;;;;;4980345;28;20525;-91
2024/03/17 09:34:08;;;;;;;1.48;0.60;;;10.80;99.90;;;;;;4979575;28;20053;-91
2024/03/17 09:36:33;;;;;;;0.90;0.75;;;10.80;99.90;;;;;;4980590;28;20093;-93
2024/03/17 09:39:00;;;;;;;1.10;0.60;;;10.80;99.90;;;;;;4979944;28;20065;-92
2024/03/17 09:41:29;;;;;;;2.50;0.90;;;10.90;99.90;;;;;;4997418;28;20522;-92
2024/03/17 09:43:57;;;;;;;5.05;2.40;;;10.90;99.90;;;;;;4981138;28;20022;-92
2024/03/17 09:46:24;;;;;;;0.85;0.75;;;10.90;99.90;;;;;;4977339;28;20030;-92
2024/03/17 09:48:53;;;;;;;1.45;0.80;;;10.90;99.90;;;;;;4979607;28;20106;-92
2024/03/17 09:51:25;;;;;;;0.95;0.80;;;10.90;99.90;;;;;;4978958;28;20053;-92
2024/03/17 09:53:51;;;;;;;0.95;0.55;;;10.90;99.90;;;;;;4979260;28;20054;-91
2024/03/17 09:56:21;;;;;;;1.58;1.13;;;10.90;99.90;;;;;;4978451;28;20018;-92
2024/03/17 09:58:52;;;;;;;2.88;1.75;;;10.90;99.90;;;;;;4978497;28;20101;-92
2024/03/17 10:01:18;;;;;;;0.82;0.75;;;11.00;99.90;;;;;;4980369;28;20090;-92
2024/03/17 10:03:58;;;;;;;1.63;0.80;;;10.90;99.90;;;;;;4978654;28;20046;-91
2024/03/17 10:06:28;;;;;;;0.85;0.82;;;11.00;99.90;;;;;;4994219;28;20042;-92
2024/03/17 10:08:59;;;;;;;1.23;0.80;;;11.10;99.90;;;;;;4978681;28;20029;-91
2024/03/17 10:11:32;;;;;;;1.20;0.70;;;11.10;99.90;;;;;;4977503;28;20468;-93
2024/03/17 10:14:04;;;;;;;0.68;0.68;;;11.20;99.90;;;;;;4978722;28;20046;-92
2024/03/17 10:16:31;;;;;;;4.63;0.80;;;11.20;99.90;;;;;;4978855;28;20117;-92
2024/03/17 10:19:37;;;;;;;1.13;0.80;;;11.20;99.90;;;;;;4977514;28;20022;-92
2024/03/17 10:22:03;;;;;;;4.43;0.82;;;11.30;99.90;;;;;;4901456;29;20189;-90
2024/03/17 10:24:29;;;;;;;0.70;0.60;;;11.30;99.90;;;;;;4917014;29;20065;-92
2024/03/17 10:26:57;;;;;;;0.90;0.68;;;11.30;99.90;;;;;;4901133;29;20126;-90
2024/03/17 10:29:36;;;;;;;1.17;0.63;;;11.20;99.90;;;;;;4916381;29;20051;-90
2024/03/17 10:32:18;;;;;;;0.52;0.50;;;11.30;99.90;;;;;;4917638;29;20075;-91
2024/03/17 10:34:44;;;;;;;1.10;0.90;;;11.20;99.90;;;;;;4917970;29;20168;-91
2024/03/17 10:37:11;;;;;;;1.23;0.90;;;11.30;99.90;;;;;;4901838;29;20032;-92
2024/03/17 10:39:38;;;;;;;4.00;2.42;;;11.30;99.90;;;;;;4915715;29;20025;-92
2024/03/17 10:42:05;;;;;;;2.10;1.50;;;11.30;99.90;;;;;;4899565;29;20035;-91
2024/03/17 10:44:34;;;;;;;1.08;0.98;;;11.40;99.90;;;;;;4915963;29;20864;-91
2024/03/17 10:47:01;;;;;;;1.55;0.88;;;11.50;99.90;;;;;;4915180;29;20044;-91
2024/03/17 10:49:31;;;;;;;1.52;1.05;;;11.50;99.90;;;;;;4898537;29;20040;-90
2024/03/17 10:52:04;;;;;;;1.20;0.98;;;11.60;99.90;;;;;;4916242;29;20026;-90
2024/03/17 10:54:30;;;;;;;2.78;1.55;;;11.60;99.90;;;;;;4916752;29;20035;-91
2024/03/17 10:57:03;;;;;;;2.50;1.10;;;11.60;99.90;;;;;;4987437;28;20037;-91
2024/03/17 10:59:42;;;;;;;0.77;0.73;;;11.60;99.90;;;;;;4978241;28;20185;-89
2024/03/17 11:02:25;;;;;;;1.13;0.70;;;11.70;99.90;;;;;;4978601;28;20526;-90
2024/03/17 11:04:57;;;;;;;1.73;0.73;;;11.70;99.90;;;;;;4977891;28;20026;-90
2024/03/17 11:07:23;;;;;;;1.25;0.73;;;11.80;99.90;;;;;;4988648;28;20022;-90
2024/03/17 11:09:51;;;;;;;0.82;0.80;;;11.90;99.90;;;;;;4977582;28;20022;-89
2024/03/17 11:12:43;;;;;;;1.02;0.90;;;12.00;99.90;;;;;;4977732;28;20058;-92
2024/03/17 11:15:26;;;;;;;1.60;0.88;;;12.20;99.90;;;;;;4976218;28;20031;-91
2024/03/17 11:18:18;;;;;;;1.23;0.60;;;12.40;99.90;;;;;;4977794;28;20047;-91
2024/03/17 11:21:07;;;;;;;0.65;0.55;;;12.60;99.90;;;;;;4991102;28;20049;-90
2024/03/17 11:23:33;;;;;;;1.05;0.70;;;12.70;99.90;;;;;;4978101;28;20022;-92
2024/03/17 11:26:02;;;;;;;1.17;0.60;;;12.80;99.90;;;;;;4977912;28;20026;-91
2024/03/17 11:28:43;;;;;;;0.90;0.50;;;12.80;99.90;;;;;;4977433;28;20026;-92
2024/03/17 11:31:43;;;;;;;0.50;0.50;;;12.80;99.90;;;;;;4976161;28;20088;-89
2024/03/17 11:34:35;;;;;;;1.13;0.68;;;12.90;99.90;;;;;;4959681;28;20045;-90
2024/03/17 11:37:03;;;;;;;0.50;0.50;;;13.10;99.90;;;;;;4991039;28;20018;-90
2024/03/17 11:39:57;;;;;;;0.50;0.50;;;13.30;99.90;;;;;;4977281;28;20018;-91
2024/03/17 11:42:25;;;;;;;0.55;0.40;;;13.60;99.90;;;;;;4976325;28;20113;-91
2024/03/17 11:45:02;;;;;;;0.47;0.30;;;14.00;99.90;;;;;;4979455;28;20026;-91
2024/03/17 11:47:40;;;;;;;0.30;0.30;;;14.30;99.90;;;;;;4980220;28;20026;-90
2024/03/17 11:50:09;;;;;;;0.77;0.50;;;14.50;99.90;;;;;;4977660;28;20034;-92
2024/03/17 11:52:35;;;;;;;0.68;0.50;;;14.50;99.90;;;;;;4977396;28;20136;-91
2024/03/17 11:55:01;;;;;;;0.60;0.60;;;14.50;99.90;;;;;;4976588;28;20101;-90
2024/03/17 11:57:27;;;;;;;0.57;0.50;;;14.40;99.90;;;;;;4977844;28;20029;-90
2024/03/17 11:59:55;;;;;;;0.55;0.50;;;14.50;99.90;;;;;;4978411;28;20019;-90
2024/03/17 12:02:31;;;;;;;5.30;0.70;;;14.80;99.90;;;;;;4977086;28;20092;-91
2024/03/17 12:04:59;;;;;;;0.50;0.50;;;15.00;99.90;;;;;;4991545;28;20026;-90
2024/03/17 12:07:26;;;;;;;0.40;0.40;;;15.30;99.90;;;;;;4976431;28;20113;-90
2024/03/17 12:09:53;;;;;;;0.40;0.30;;;15.60;99.90;;;;;;4974896;28;20053;-91
2024/03/17 12:12:35;;;;;;;0.75;0.75;;;15.90;99.90;;;;;;4981458;28;20022;-89
2024/03/17 12:15:02;;;;;;;1.63;0.60;;;16.00;99.90;;;;;;4978783;28;20034;-90
2024/03/17 12:17:29;;;;;;;0.80;0.50;;;16.00;99.90;;;;;;4978321;28;20045;-89
2024/03/17 12:19:58;;;;;;;0.80;0.68;;;16.00;99.90;;;;;;4978329;28;20028;-90
2024/03/17 12:22:27;;;;;;;1.50;0.68;;;16.00;99.90;;;;;;4978888;28;20053;-89
2024/03/17 12:24:54;;;;;;;0.40;0.40;;;15.90;99.90;;;;;;4975099;28;20487;-90
2024/03/17 12:27:25;;;;;;;0.95;0.50;;;15.70;99.90;;;;;;4976722;28;20559;-88
2024/03/17 12:29:54;;;;;;;1.42;0.40;;;15.60;99.90;;;;;;4976464;28;20023;-90
2024/03/17 12:32:22;;;;;;;0.43;0.40;;;15.60;99.90;;;;;;4976495;28;20047;-90
2024/03/17 12:34:51;;;;;;;0.57;0.40;;;15.50;99.90;;;;;;4976303;28;20049;-89
2024/03/17 12:37:28;;;;;;;0.43;0.43;;;15.50;99.90;;;;;;4976326;28;20665;-89
2024/03/17 12:39:54;;;;;;;1.52;0.30;;;15.70;99.90;;;;;;4976371;28;20599;-90
2024/03/17 12:42:29;;;;;;;1.02;0.60;;;16.10;99.90;;;;;;4976533;28;20053;-88
2024/03/17 12:45:04;;;;;;;1.00;0.52;;;16.50;99.90;;;;;;4990668;28;20520;-89
2024/03/17 12:47:31;;;;;;;1.15;1.00;;;16.70;99.90;;;;;;4977625;28;20026;-87
2024/03/17 12:49:59;;;;;;;3.25;1.52;;;16.70;99.90;;;;;;4980134;28;20033;-91